createdAt,value
2018-07-31T05:47:08.101Z,54.00
2018-07-31T05:49:10.171Z,51.30
2018-07-31T05:51:12.300Z,50.20
2018-07-31T05:53:14.359Z,47.40
2018-07-31T05:55:16.416Z,45.60
2018-07-31T05:57:18.511Z,44.80
2018-07-31T05:59:20.516Z,44.90
2018-07-31T06:01:22.628Z,40.00
2018-07-31T06:03:24.683Z,35.40
2018-07-31T06:05:26.682Z,34.80
2018-07-31T06:07:28.724Z,34.50
2018-07-31T06:09:30.758Z,32.00
2018-07-31T06:11:32.801Z,35.10
2018-07-31T06:13:34.933Z,32.10
2018-07-31T06:15:36.987Z,29.60
2018-07-31T06:17:39.015Z,30.80
2018-07-31T06:19:41.045Z,30.70
2018-07-31T06:21:43.092Z,28.50
2018-07-31T06:23:45.128Z,30.00
2018-07-31T06:25:47.146Z,30.30
2018-07-31T06:27:49.185Z,30.90
2018-07-31T06:29:51.256Z,28.70
2018-07-31T06:31:53.328Z,30.30
2018-07-31T06:33:55.406Z,22.60
2018-07-31T06:35:57.464Z,18.30
2018-07-31T06:37:59.504Z,24.90
2018-07-31T06:40:01.550Z,23.10
2018-07-31T06:42:03.601Z,21.10
2018-07-31T06:44:06.090Z,22.90
2018-07-31T06:46:08.108Z,19.50
2018-07-31T06:48:10.226Z,15.20
2018-07-31T06:50:12.254Z,19.30
2018-07-31T06:52:14.295Z,12.40
2018-07-31T06:54:16.315Z,15.20
2018-07-31T06:56:18.436Z,15.20
2018-07-31T06:58:20.464Z,12.70
2018-07-31T07:00:22.497Z,12.80
2018-07-31T07:02:24.568Z,13.60
2018-07-31T07:04:26.600Z,12.30
2018-07-31T07:06:28.616Z,12.30
2018-07-31T07:08:30.668Z,7.00
2018-07-31T07:10:32.685Z,7.20
2018-07-31T07:12:34.773Z,5.80
2018-07-31T07:14:36.796Z,7.50
2018-07-31T07:16:38.814Z,9.40
2018-07-31T07:18:40.860Z,4.70
2018-07-31T07:20:42.892Z,7.20
2018-07-31T07:22:44.950Z,6.10
2018-07-31T07:24:46.983Z,5.10
2018-07-31T07:26:49.012Z,6.90
2018-07-31T07:28:51.124Z,5.20
2018-07-31T07:30:53.156Z,3.50
2018-07-31T07:32:55.217Z,3.20
2018-07-31T07:34:57.262Z,3.30
2018-07-31T07:36:59.280Z,3.50
2018-07-31T07:39:01.320Z,5.70
2018-07-31T07:41:03.354Z,2.80
2018-07-31T07:43:05.402Z,4.80
2018-07-31T07:45:07.405Z,5.40
2018-07-31T07:47:09.840Z,1.00
2018-07-31T07:49:11.883Z,2.60
2018-07-31T07:51:13.918Z,3.30
2018-07-31T07:53:15.953Z,1.00
2018-07-31T07:55:18.002Z,1.00
2018-07-31T07:57:20.101Z,1.00
2018-07-31T07:59:22.140Z,2.00
2018-07-31T08:01:24.358Z,2.30
2018-07-31T08:03:26.480Z,2.50
2018-07-31T08:05:28.544Z,1.00
2018-07-31T08:07:30.612Z,1.00
2018-07-31T08:09:32.727Z,1.00
2018-07-31T08:11:34.779Z,1.00
2018-07-31T08:13:36.836Z,1.00
2018-07-31T08:15:38.935Z,1.00
2018-07-31T08:17:40.952Z,1.00
2018-07-31T08:19:42.976Z,1.00
2018-07-31T08:21:45.089Z,1.00
2018-07-31T08:23:47.229Z,1.20
2018-07-31T08:25:49.264Z,1.00
2018-07-31T08:27:51.421Z,1.00
2018-07-31T08:29:53.377Z,1.00
2018-07-31T08:31:55.417Z,1.00
2018-07-31T08:33:57.637Z,1.00
2018-07-31T08:35:59.683Z,1.00
2018-07-31T08:38:01.712Z,1.00
2018-07-31T08:40:03.834Z,1.00
2018-07-31T08:42:05.940Z,1.00
2018-07-31T08:44:08.001Z,1.00
2018-07-31T08:46:10.010Z,1.00
2018-07-31T08:48:12.044Z,1.00
2018-07-31T08:50:14.153Z,1.00
2018-07-31T08:52:16.237Z,1.00
2018-07-31T08:54:18.260Z,1.00
2018-07-31T08:56:20.276Z,1.00
2018-07-31T08:58:22.288Z,1.00
2018-07-31T09:00:24.389Z,1.00
2018-07-31T09:02:26.409Z,1.00
2018-07-31T09:04:28.451Z,1.00
2018-07-31T09:06:30.460Z,1.00
2018-07-31T09:08:32.543Z,1.00
2018-07-31T09:10:34.501Z,1.00
2018-07-31T09:12:36.541Z,1.00
2018-07-31T09:14:38.605Z,1.00
2018-07-31T09:18:42.708Z,1.00
2018-07-31T09:20:44.754Z,1.00
2018-07-31T09:22:46.775Z,1.00
2018-07-31T09:24:48.821Z,1.00
2018-07-31T09:26:50.802Z,1.00
2018-07-31T09:28:52.817Z,1.00
2018-07-31T09:31:01.034Z,1.00
2018-07-31T09:33:07.028Z,1.00
2018-07-31T09:35:09.123Z,1.00
2018-07-31T09:37:11.151Z,1.00
2018-07-31T09:39:13.173Z,1.00
2018-07-31T09:41:15.184Z,1.00
2018-07-31T09:43:17.248Z,1.00
2018-07-31T09:45:19.273Z,1.00
2018-07-31T09:47:21.305Z,1.00
2018-07-31T09:49:23.331Z,1.00
2018-07-31T09:51:25.329Z,1.00
2018-07-31T09:53:27.364Z,1.00
2018-07-31T09:55:29.393Z,1.00
2018-07-31T09:57:31.397Z,1.00
2018-07-31T09:59:33.445Z,1.00
2018-07-31T10:01:35.484Z,1.00
2018-07-31T10:03:37.497Z,1.00
2018-07-31T10:05:39.516Z,1.00
2018-07-31T10:07:41.521Z,1.00
2018-07-31T10:09:43.561Z,1.00
2018-07-31T10:11:45.675Z,1.00
2018-07-31T10:13:47.658Z,1.00
2018-07-31T10:15:49.922Z,1.00
2018-07-31T10:17:51.991Z,1.00
2018-07-31T10:19:53.941Z,1.00
2018-07-31T10:21:55.937Z,1.00
2018-07-31T10:23:57.936Z,1.00
2018-07-31T10:25:59.960Z,1.00
2018-07-31T10:28:01.960Z,1.00
2018-07-31T10:30:04.445Z,1.00
2018-07-31T10:32:06.445Z,1.00
2018-07-31T10:34:08.457Z,1.00
2018-07-31T10:36:10.529Z,1.00
2018-07-31T10:38:12.545Z,1.00
2018-07-31T10:40:14.571Z,1.00
2018-07-31T10:42:16.584Z,1.00
2018-07-31T10:44:18.589Z,1.00
2018-07-31T10:46:20.603Z,1.00
2018-07-31T10:48:22.609Z,1.00
2018-07-31T10:50:24.624Z,1.00
2018-07-31T10:52:26.924Z,1.00
2018-07-31T10:54:28.931Z,1.00
2018-07-31T10:56:30.936Z,1.00
2018-07-31T10:58:32.964Z,1.00
2018-07-31T11:00:34.965Z,1.00
2018-07-31T11:02:37.168Z,1.00
2018-07-31T11:04:39.144Z,1.00
2018-07-31T11:06:41.192Z,1.00
2018-07-31T11:08:43.201Z,1.00
2018-07-31T11:10:45.232Z,1.00
2018-07-31T11:12:47.229Z,1.00
2018-07-31T11:14:49.261Z,1.00
2018-07-31T11:16:51.320Z,1.00
2018-07-31T11:18:53.397Z,1.00
2018-07-31T11:20:55.491Z,1.00
2018-07-31T11:22:57.452Z,1.00
2018-07-31T11:24:59.500Z,1.00
2018-07-31T11:27:01.526Z,1.00
2018-07-31T11:29:03.525Z,1.00
2018-07-31T11:31:05.684Z,1.00
2018-07-31T11:33:07.729Z,1.00
2018-07-31T11:35:09.741Z,1.00
2018-07-31T11:37:11.748Z,1.00
2018-07-31T11:41:15.844Z,1.00
2018-07-31T11:43:17.895Z,1.00
2018-07-31T11:45:19.941Z,1.00
2018-07-31T11:47:22.945Z,1.00
2018-07-31T11:49:25.039Z,1.00
2018-07-31T11:51:27.129Z,1.00
2018-07-31T11:53:29.253Z,1.00
2018-07-31T11:55:31.329Z,1.00
2018-07-31T11:57:33.396Z,1.00
2018-07-31T11:59:35.447Z,1.00
2018-07-31T12:01:37.512Z,1.00
2018-07-31T12:03:39.621Z,1.00
2018-07-31T12:05:41.728Z,1.00
2018-07-31T12:07:43.780Z,1.00
2018-07-31T12:09:45.872Z,1.00
2018-07-31T12:11:47.946Z,1.00
2018-07-31T12:13:50.054Z,1.00
2018-07-31T12:15:52.122Z,1.00
2018-07-31T12:17:54.258Z,1.00
2018-07-31T12:19:56.345Z,1.00
2018-07-31T12:21:58.439Z,1.00
2018-07-31T12:24:00.513Z,1.00
2018-07-31T12:28:04.768Z,1.00
2018-07-31T12:30:08.189Z,1.00
2018-07-31T12:32:10.334Z,1.00
2018-07-31T12:34:12.437Z,1.00
2018-07-31T12:36:14.498Z,1.00
2018-07-31T12:38:16.651Z,1.00
2018-07-31T12:40:18.670Z,1.00
2018-07-31T12:42:20.810Z,1.00
2018-07-31T12:44:22.868Z,1.00
2018-07-31T12:46:24.956Z,1.00
2018-07-31T12:48:27.070Z,1.00
2018-07-31T12:50:29.228Z,1.00
2018-07-31T12:52:31.448Z,1.00
2018-07-31T12:54:33.565Z,1.00
2018-07-31T12:56:35.626Z,1.00
2018-07-31T12:58:37.704Z,1.00
2018-07-31T13:00:39.789Z,1.00
2018-07-31T13:02:41.924Z,1.00
2018-07-31T13:04:44.025Z,1.00
2018-07-31T13:06:46.228Z,1.00
2018-07-31T13:08:48.221Z,1.00
2018-07-31T13:10:50.297Z,1.00
2018-07-31T13:12:52.384Z,1.00
2018-07-31T13:14:54.480Z,1.00
2018-07-31T13:16:56.670Z,1.00
2018-07-31T13:18:59.235Z,1.00
2018-07-31T13:21:01.397Z,1.00
2018-07-31T13:23:03.491Z,1.00
2018-07-31T13:25:05.584Z,1.00
2018-07-31T13:27:07.676Z,1.00
2018-07-31T13:29:10.276Z,1.00
2018-07-31T13:31:12.438Z,1.00
2018-07-31T13:33:14.504Z,1.00
2018-07-31T13:35:16.648Z,1.00
2018-07-31T13:37:18.872Z,1.00
2018-07-31T13:39:20.928Z,1.00
2018-07-31T13:41:23.010Z,1.00
2018-07-31T13:43:25.196Z,1.00
2018-07-31T13:45:27.217Z,1.00
2018-07-31T13:47:29.280Z,1.00
2018-07-31T13:49:31.489Z,1.00
2018-07-31T13:51:33.565Z,1.00
2018-07-31T13:53:35.649Z,1.00
2018-07-31T13:55:37.705Z,1.00
2018-07-31T13:57:40.246Z,1.00
2018-07-31T13:59:42.301Z,1.00
2018-07-31T14:01:44.449Z,1.00
2018-07-31T14:03:46.507Z,1.00
2018-07-31T14:05:48.569Z,1.00
2018-07-31T14:07:51.273Z,1.00
2018-07-31T14:09:53.434Z,1.00
2018-07-31T14:11:55.644Z,1.00
2018-07-31T14:13:57.689Z,1.00
2018-07-31T14:16:00.036Z,1.00
2018-07-31T14:18:02.140Z,1.00
2018-07-31T14:20:04.273Z,1.00
2018-07-31T14:22:06.425Z,1.00
2018-07-31T14:24:08.537Z,1.00
2018-07-31T14:26:10.592Z,1.00
2018-07-31T14:28:12.740Z,1.00
2018-07-31T14:30:14.818Z,1.00
2018-07-31T14:32:16.924Z,1.00
2018-07-31T14:34:19.092Z,1.00
2018-07-31T14:36:21.369Z,1.00
2018-07-31T14:38:23.741Z,1.00
2018-07-31T14:40:26.105Z,1.00
2018-07-31T14:42:28.218Z,1.00
2018-07-31T14:44:30.273Z,1.00
2018-07-31T14:46:32.353Z,1.00
2018-07-31T14:48:34.502Z,1.00
2018-07-31T14:50:37.009Z,1.00
2018-07-31T14:52:39.212Z,1.00
2018-07-31T14:54:41.788Z,1.00
2018-07-31T14:56:43.844Z,1.00
2018-07-31T15:00:48.301Z,1.00
2018-07-31T15:02:50.681Z,1.00
2018-07-31T15:04:52.794Z,1.00
2018-07-31T15:06:54.841Z,1.00
2018-07-31T15:08:57.197Z,1.00
2018-07-31T15:10:59.563Z,1.00
2018-07-31T15:15:04.129Z,1.00
2018-07-31T15:17:08.168Z,1.00
2018-07-31T15:19:12.366Z,1.00
2018-07-31T15:21:15.848Z,1.00
2018-07-31T15:23:19.011Z,1.00
2018-07-31T15:25:21.373Z,1.00
2018-07-31T15:27:24.206Z,1.00
2018-07-31T15:29:27.293Z,1.00
2018-07-31T15:31:31.592Z,1.00
2018-07-31T15:33:34.113Z,1.00
2018-07-31T15:35:36.250Z,1.00
2018-07-31T15:37:38.341Z,1.00
2018-07-31T15:39:40.797Z,1.00
2018-07-31T15:41:43.117Z,1.00
2018-07-31T15:43:46.079Z,1.00
2018-07-31T15:45:49.342Z,1.00
2018-07-31T15:47:51.925Z,1.00
2018-07-31T15:49:55.240Z,1.00
2018-07-31T15:51:59.433Z,1.00
2018-07-31T15:54:01.762Z,1.00
2018-07-31T15:56:04.691Z,1.00
2018-07-31T15:58:11.261Z,1.00
2018-07-31T16:00:14.039Z,1.00
2018-07-31T16:02:17.143Z,1.00
2018-07-31T16:04:19.504Z,1.00
2018-07-31T16:06:22.454Z,1.00
2018-07-31T16:08:24.673Z,1.00
2018-07-31T16:10:27.009Z,1.00
2018-07-31T16:12:29.150Z,1.00
2018-07-31T16:14:31.465Z,1.00
2018-07-31T16:16:33.756Z,1.00
2018-07-31T16:18:36.501Z,1.00
2018-07-31T16:20:38.639Z,1.00
2018-07-31T16:22:41.322Z,1.00
2018-07-31T16:24:44.194Z,1.00
2018-07-31T16:26:46.730Z,1.00
2018-07-31T16:28:48.945Z,1.00
2018-07-31T16:30:51.274Z,1.00
2018-07-31T16:32:53.819Z,1.00
2018-07-31T16:34:56.924Z,1.00
2018-07-31T16:36:59.348Z,1.00
2018-07-31T16:39:01.785Z,1.00
2018-07-31T16:41:04.142Z,1.00
2018-07-31T16:43:06.513Z,1.00
2018-07-31T16:45:09.107Z,1.00
2018-07-31T16:47:11.337Z,1.00
2018-07-31T16:49:13.574Z,1.00
2018-07-31T16:51:16.166Z,1.00
2018-07-31T16:53:18.550Z,1.00
2018-07-31T16:55:21.337Z,1.00
2018-07-31T16:57:23.561Z,1.00
2018-07-31T16:59:25.770Z,1.00
2018-07-31T17:01:27.886Z,1.00
2018-07-31T17:03:30.025Z,1.00
2018-07-31T17:05:32.144Z,1.00
2018-07-31T17:07:34.271Z,1.00
2018-07-31T17:09:36.399Z,1.00
2018-07-31T17:11:38.549Z,1.00
2018-07-31T17:13:40.777Z,1.00
2018-07-31T17:15:42.873Z,1.00
2018-07-31T17:17:44.961Z,1.00
2018-07-31T17:19:47.062Z,1.00
2018-07-31T17:21:49.161Z,1.00
2018-07-31T17:23:51.269Z,1.00
2018-07-31T17:25:53.393Z,1.00
2018-07-31T17:27:55.474Z,1.00
2018-07-31T17:29:57.634Z,1.00
2018-07-31T17:31:59.797Z,1.00
2018-07-31T17:34:02.011Z,1.00
2018-07-31T17:36:04.211Z,1.00
2018-07-31T17:38:06.390Z,1.00
2018-07-31T17:40:08.549Z,1.00
2018-07-31T17:44:13.026Z,4.60
2018-07-31T17:46:15.054Z,3.30
2018-07-31T17:48:17.261Z,3.80
2018-07-31T17:50:19.469Z,4.70
2018-07-31T17:52:21.773Z,3.90
2018-07-31T17:54:23.977Z,6.10
2018-07-31T17:58:28.324Z,3.90
2018-07-31T18:00:30.477Z,5.90
2018-07-31T18:02:40.565Z,5.30
2018-07-31T18:04:42.797Z,5.90
2018-07-31T18:06:45.180Z,5.50
2018-07-31T18:08:47.538Z,6.90
2018-07-31T18:10:49.701Z,7.00
2018-07-31T18:12:51.871Z,7.70
2018-07-31T18:14:54.182Z,8.50
2018-07-31T18:16:56.298Z,7.50
2018-07-31T18:18:58.444Z,8.50
2018-07-31T18:21:00.665Z,8.80
2018-07-31T18:23:02.762Z,8.20
2018-07-31T18:25:04.866Z,9.80
2018-07-31T18:27:07.322Z,8.80
2018-07-31T18:29:09.510Z,9.30
2018-07-31T18:31:11.803Z,8.90
2018-07-31T18:33:14.125Z,9.70
2018-07-31T18:35:16.339Z,9.10
2018-07-31T18:37:18.465Z,9.80
2018-07-31T18:39:20.638Z,9.40
2018-07-31T18:41:22.754Z,10.40
2018-07-31T18:43:24.882Z,9.30
2018-07-31T18:45:27.006Z,9.60
2018-07-31T18:47:29.281Z,10.50
2018-07-31T18:49:31.489Z,10.40
2018-07-31T18:51:33.614Z,10.20
2018-07-31T18:53:35.825Z,10.80
2018-07-31T18:55:38.009Z,10.40
2018-07-31T18:57:40.319Z,11.20
2018-07-31T18:59:42.743Z,11.00
2018-07-31T19:01:45.026Z,11.60
2018-07-31T19:03:47.205Z,11.70
2018-07-31T19:05:49.372Z,12.30
2018-07-31T19:07:53.554Z,12.10
2018-07-31T19:09:55.887Z,11.40
2018-07-31T19:11:58.243Z,11.90
2018-07-31T19:14:00.498Z,12.90
2018-07-31T19:16:02.634Z,11.80
2018-07-31T19:18:04.897Z,12.10
2018-07-31T19:22:10.233Z,12.60
2018-07-31T19:24:12.429Z,13.30
2018-07-31T19:26:14.706Z,13.80
2018-07-31T19:28:17.970Z,15.30
2018-07-31T19:30:21.347Z,13.80
2018-07-31T19:32:23.670Z,14.70
2018-07-31T19:34:27.350Z,14.70
2018-07-31T19:36:29.856Z,15.60
2018-07-31T19:38:34.063Z,16.10
2018-07-31T19:40:40.236Z,15.90
2018-07-31T19:42:42.687Z,15.60
2018-07-31T19:44:45.702Z,16.10
2018-07-31T19:46:47.877Z,16.00
2018-07-31T19:48:50.114Z,16.00
2018-07-31T19:50:52.773Z,16.00
2018-07-31T19:52:57.383Z,16.30
2018-07-31T19:55:00.335Z,16.10
2018-07-31T19:57:03.092Z,17.00
2018-07-31T19:59:05.686Z,16.50
2018-07-31T20:01:08.199Z,16.70
2018-07-31T20:03:11.050Z,16.80
2018-07-31T20:05:14.278Z,17.50
2018-07-31T20:07:17.779Z,17.10
2018-07-31T20:09:25.242Z,17.80
2018-07-31T20:11:27.987Z,17.70
2018-07-31T20:13:30.749Z,17.00
2018-07-31T20:15:34.326Z,17.60
2018-07-31T20:17:36.714Z,17.40
2018-07-31T20:19:39.788Z,17.70
2018-07-31T20:23:44.479Z,17.60
2018-07-31T20:25:47.998Z,17.70
2018-07-31T20:27:51.989Z,18.00
2018-07-31T20:29:57.067Z,18.50
2018-07-31T20:32:06.698Z,18.40
2018-07-31T20:34:12.018Z,18.40
2018-07-31T20:36:15.145Z,18.10
2018-07-31T20:38:18.323Z,18.30
2018-07-31T20:40:24.929Z,19.20
2018-07-31T20:42:27.979Z,20.00
2018-07-31T20:44:37.338Z,19.40
2018-07-31T20:46:41.366Z,19.30
2018-07-31T20:50:55.067Z,20.70
2018-07-31T20:55:49.977Z,21.30
2018-07-31T20:58:14.505Z,21.70
2018-07-31T21:00:27.711Z,21.10
2018-07-31T21:02:32.117Z,21.40
2018-07-31T21:04:38.227Z,21.20
